createdAt,value
2018-11-04T00:01:34.870Z,102538.73
2018-11-04T00:04:03.600Z,102534.80
2018-11-04T00:06:32.290Z,102525.03
2018-11-04T00:09:01.016Z,102526.56
2018-11-04T00:11:30.067Z,102519.20
2018-11-04T00:13:58.769Z,102515.67
2018-11-04T00:19:01.424Z,102516.08
2018-11-04T00:21:30.225Z,102514.70
2018-11-04T00:23:59.002Z,102512.63
2018-11-04T00:26:27.862Z,102513.16
2018-11-04T00:28:56.626Z,102510.52
2018-11-04T00:31:25.311Z,102501.63
2018-11-04T00:33:54.146Z,102494.19
2018-11-04T00:36:22.936Z,102494.63
2018-11-04T00:38:51.645Z,102489.38
2018-11-04T00:41:20.430Z,102484.13
2018-11-04T00:43:49.255Z,102486.27
2018-11-04T00:46:17.965Z,102483.25
2018-11-04T00:48:46.891Z,102482.75
2018-11-04T00:51:15.631Z,102477.06
2018-11-04T00:53:44.350Z,102474.48
2018-11-04T00:56:13.108Z,102468.34
2018-11-04T00:58:41.820Z,102464.92
2018-11-04T01:01:10.590Z,102464.06
2018-11-04T01:03:39.840Z,102462.69
2018-11-04T01:06:09.752Z,102456.87
2018-11-04T01:08:38.443Z,102459.03
2018-11-04T01:11:07.170Z,102452.42
2018-11-04T01:13:35.874Z,102454.73
2018-11-04T01:16:04.676Z,102449.34
2018-11-04T01:18:33.579Z,102445.75
2018-11-04T01:21:02.386Z,102438.39
2018-11-04T01:23:31.131Z,102433.20
2018-11-04T01:25:59.877Z,102437.23
2018-11-04T01:28:28.608Z,102428.30
2018-11-04T01:30:57.301Z,102427.77
2018-11-04T01:33:26.177Z,102414.19
2018-11-04T01:35:54.867Z,102413.70
2018-11-04T01:38:23.535Z,102415.86
2018-11-04T01:40:52.638Z,102411.03
2018-11-04T01:43:21.316Z,102408.98
2018-11-04T01:45:50.082Z,102402.48
2018-11-04T01:48:18.883Z,102400.73
2018-11-04T01:50:47.670Z,102391.84
2018-11-04T01:53:16.362Z,102382.94
2018-11-04T01:55:45.189Z,102382.03
2018-11-04T01:58:13.894Z,102379.30
2018-11-04T02:00:42.606Z,102373.66
2018-11-04T02:03:11.581Z,102369.03
2018-11-04T02:05:40.294Z,102365.48
2018-11-04T02:08:09.711Z,102364.55
2018-11-04T02:10:38.521Z,102353.94
2018-11-04T02:13:07.207Z,102348.74
2018-11-04T02:15:35.891Z,102350.24
2018-11-04T02:18:04.705Z,102348.39
2018-11-04T02:20:33.390Z,102343.62
2018-11-04T02:23:02.086Z,102339.74
2018-11-04T02:25:30.834Z,102330.36
2018-11-04T02:27:59.551Z,102331.27
2018-11-04T02:30:28.210Z,102323.72
2018-11-04T02:32:57.028Z,102321.10
2018-11-04T02:35:25.742Z,102316.67
2018-11-04T02:37:54.472Z,102317.14
2018-11-04T02:40:23.287Z,102317.64
2018-11-04T02:42:52.038Z,102314.60
2018-11-04T02:45:20.815Z,102310.30
2018-11-04T02:47:49.648Z,102307.67
2018-11-04T02:50:18.481Z,102306.30
2018-11-04T02:52:47.133Z,102308.40
2018-11-04T02:55:15.879Z,102304.00
2018-11-04T02:57:44.602Z,102300.89
2018-11-04T03:00:14.899Z,102295.15
2018-11-04T03:02:44.003Z,102293.78
2018-11-04T03:05:12.888Z,102284.13
2018-11-04T03:07:42.292Z,102284.97
2018-11-04T03:10:12.329Z,102281.02
2018-11-04T03:12:41.230Z,102287.63
2018-11-04T03:15:10.202Z,102283.67
2018-11-04T03:17:40.040Z,102279.20
2018-11-04T03:20:08.805Z,102272.98
2018-11-04T03:22:37.543Z,102266.95
2018-11-04T03:25:07.056Z,102256.77
2018-11-04T03:27:35.839Z,102253.69
2018-11-04T03:30:04.672Z,102253.06
2018-11-04T03:32:33.510Z,102248.66
2018-11-04T03:35:02.195Z,102237.16
2018-11-04T03:37:30.979Z,102236.50
2018-11-04T03:39:59.723Z,102242.12
2018-11-04T03:42:28.408Z,102234.55
2018-11-04T03:44:57.111Z,102229.48
2018-11-04T03:47:25.994Z,102223.61
2018-11-04T03:49:54.708Z,102229.63
2018-11-04T03:52:23.421Z,102223.89
2018-11-04T03:54:52.182Z,102226.88
2018-11-04T03:57:20.893Z,102219.80
2018-11-04T03:59:49.611Z,102217.36
2018-11-04T04:02:18.422Z,102215.39
2018-11-04T04:04:47.116Z,102217.05
2018-11-04T04:07:16.122Z,102210.77
2018-11-04T04:09:44.942Z,102201.22
2018-11-04T04:12:13.651Z,102198.46
2018-11-04T04:14:42.357Z,102197.47
2018-11-04T04:17:11.228Z,102197.86
2018-11-04T04:19:39.904Z,102194.92
2018-11-04T04:22:08.591Z,102195.02
2018-11-04T04:24:37.412Z,102193.38
2018-11-04T04:27:06.278Z,102184.72
2018-11-04T04:29:34.995Z,102185.16
2018-11-04T04:32:03.888Z,102180.22
2018-11-04T04:34:32.602Z,102180.62
2018-11-04T04:37:01.327Z,102176.53
2018-11-04T04:39:30.061Z,102173.75
2018-11-04T04:41:58.871Z,102176.20
2018-11-04T04:44:27.654Z,102171.78
2018-11-04T04:46:56.501Z,102171.30
2018-11-04T04:49:25.242Z,102178.07
2018-11-04T04:51:53.986Z,102169.09
2018-11-04T04:54:22.738Z,102163.18
2018-11-04T04:56:51.438Z,102165.79
2018-11-04T04:59:20.185Z,102153.02
2018-11-04T05:01:49.102Z,102156.20
2018-11-04T05:04:17.776Z,102157.17
2018-11-04T05:06:46.515Z,102158.20
2018-11-04T05:09:15.395Z,102151.92
2018-11-04T05:11:44.101Z,102150.15
2018-11-04T05:14:12.817Z,102150.33
2018-11-04T05:16:41.691Z,102138.84
2018-11-04T05:19:10.391Z,102145.73
2018-11-04T05:21:39.973Z,102146.40
2018-11-04T05:24:08.787Z,102149.31
2018-11-04T05:26:37.753Z,102139.77
2018-11-04T05:29:06.641Z,102143.25
2018-11-04T05:31:35.429Z,102155.00
2018-11-04T05:34:04.197Z,102155.39
2018-11-04T05:36:32.948Z,102144.92
2018-11-04T05:39:01.806Z,102148.45
2018-11-04T05:41:30.589Z,102147.50
2018-11-04T05:43:59.300Z,102142.55
2018-11-04T05:46:28.151Z,102140.34
2018-11-04T05:48:56.860Z,102147.53
2018-11-04T05:51:25.566Z,102144.97
2018-11-04T05:53:56.937Z,102149.07
2018-11-04T05:56:25.625Z,102141.33
2018-11-04T05:58:54.338Z,102141.73
2018-11-04T06:01:23.253Z,102142.66
2018-11-04T06:03:52.002Z,102143.53
2018-11-04T06:06:20.772Z,102140.00
2018-11-04T06:08:49.813Z,102140.45
2018-11-04T06:11:18.670Z,102140.53
2018-11-04T06:13:47.413Z,102145.83
2018-11-04T06:16:16.434Z,102138.45
2018-11-04T06:18:45.126Z,102146.52
2018-11-04T06:21:13.846Z,102149.24
2018-11-04T06:23:42.638Z,102146.08
2018-11-04T06:26:11.347Z,102154.50
2018-11-04T06:28:40.270Z,102149.56
2018-11-04T06:31:09.135Z,102152.25
2018-11-04T06:33:37.832Z,102150.84
2018-11-04T06:36:06.767Z,102160.19
2018-11-04T06:38:35.525Z,102161.14
2018-11-04T06:41:04.265Z,102157.18
2018-11-04T06:43:32.984Z,102158.67
2018-11-04T06:46:01.845Z,102155.05
2018-11-04T06:48:30.539Z,102156.33
2018-11-04T06:50:59.235Z,102152.09
2018-11-04T06:53:28.092Z,102147.66
2018-11-04T06:55:57.698Z,102144.72
2018-11-04T06:58:26.406Z,102147.38
2018-11-04T07:00:55.246Z,102148.70
2018-11-04T07:03:24.022Z,102144.91
2018-11-04T07:05:52.859Z,102147.47
2018-11-04T07:08:21.787Z,102141.87
2018-11-04T07:10:50.502Z,102144.83
2018-11-04T07:13:19.417Z,102145.27
2018-11-04T07:15:48.201Z,102143.16
2018-11-04T07:18:16.939Z,102143.21
2018-11-04T07:20:45.841Z,102144.49
2018-11-04T07:23:14.906Z,102146.16
2018-11-04T07:25:43.701Z,102144.67
2018-11-04T07:28:12.300Z,102137.45
2018-11-04T07:30:41.141Z,102133.83
2018-11-04T07:33:10.345Z,102134.55
2018-11-04T07:35:39.183Z,102130.52
2018-11-04T07:38:08.116Z,102134.34
2018-11-04T07:40:36.912Z,102134.95
2018-11-04T07:43:06.217Z,102127.11
2018-11-04T07:45:35.019Z,102130.26
2018-11-04T07:48:03.768Z,102126.84
2018-11-04T07:50:32.493Z,102131.27
2018-11-04T07:53:01.369Z,102132.16
2018-11-04T07:55:30.126Z,102127.83
2018-11-04T07:57:58.827Z,102127.82
2018-11-04T08:00:27.554Z,102115.88
2018-11-04T08:02:56.259Z,102108.62
2018-11-04T08:05:24.966Z,102109.39
2018-11-04T08:07:53.888Z,102106.41
2018-11-04T08:10:22.639Z,102106.12
2018-11-04T08:12:51.359Z,102116.97
2018-11-04T08:15:20.360Z,102112.01
2018-11-04T08:17:49.155Z,102113.61
2018-11-04T08:20:17.973Z,102099.88
2018-11-04T08:22:46.701Z,102092.68
2018-11-04T08:25:15.435Z,102091.89
2018-11-04T08:27:44.375Z,102090.97
2018-11-04T08:30:13.115Z,102086.05
2018-11-04T08:32:41.839Z,102085.41
2018-11-04T08:35:10.597Z,102082.14
2018-11-04T08:37:40.541Z,102086.55
2018-11-04T08:40:09.375Z,102075.80
2018-11-04T08:42:38.004Z,102083.58
2018-11-04T08:45:07.786Z,102078.16
2018-11-04T08:47:36.581Z,102074.18
2018-11-04T08:50:06.543Z,102078.73
2018-11-04T08:52:35.713Z,102076.11
2018-11-04T08:55:04.498Z,102069.09
2018-11-04T08:57:33.191Z,102069.66
2018-11-04T09:00:02.051Z,102066.06
2018-11-04T09:02:30.765Z,102065.66
2018-11-04T09:04:59.455Z,102068.09
2018-11-04T09:07:28.218Z,102059.55
2018-11-04T09:09:56.924Z,102056.45
2018-11-04T09:12:25.599Z,102054.63
2018-11-04T09:14:54.431Z,102045.27
2018-11-04T09:17:23.317Z,102038.98
2018-11-04T09:19:51.959Z,102042.47
2018-11-04T09:22:20.856Z,102045.19
2018-11-04T09:24:49.530Z,102042.27
2018-11-04T09:27:18.279Z,102040.30
2018-11-04T09:29:47.123Z,102033.39
2018-11-04T09:32:15.855Z,102035.54
2018-11-04T09:34:44.609Z,102037.08
2018-11-04T09:37:13.444Z,102045.62
2018-11-04T09:39:42.198Z,102035.62
2018-11-04T09:42:10.943Z,102042.19
2018-11-04T09:44:40.999Z,102031.86
2018-11-04T09:47:10.539Z,102029.05
2018-11-04T09:49:39.233Z,102020.63
2018-11-04T09:52:08.067Z,102019.00
2018-11-04T09:54:36.786Z,102017.94
2018-11-04T09:57:05.583Z,102015.12
2018-11-04T09:59:34.444Z,102015.16
2018-11-04T10:02:03.474Z,102016.02
2018-11-04T10:04:32.137Z,102019.64
2018-11-04T10:07:00.930Z,102016.50
2018-11-04T10:09:29.675Z,101999.16
2018-11-04T10:11:58.386Z,102000.72
2018-11-04T10:14:27.234Z,102000.05
2018-11-04T10:16:55.899Z,101996.27
2018-11-04T10:19:24.886Z,101992.95
2018-11-04T10:21:53.600Z,101992.49
2018-11-04T10:24:22.328Z,101987.77
2018-11-04T10:26:51.282Z,101980.56
2018-11-04T10:29:20.165Z,101984.07
2018-11-04T10:31:48.912Z,101983.80
2018-11-04T10:34:17.673Z,101977.20
2018-11-04T10:36:46.511Z,101974.39
2018-11-04T10:39:15.237Z,101989.90
2018-11-04T10:41:44.421Z,101987.55
2018-11-04T10:44:13.288Z,101981.89
2018-11-04T10:46:41.989Z,101973.06
2018-11-04T10:49:10.745Z,101971.94
2018-11-04T10:51:39.445Z,101970.68
2018-11-04T10:54:08.208Z,101963.97
2018-11-04T10:56:36.985Z,101959.55
2018-11-04T10:59:06.136Z,101952.95
2018-11-04T11:01:34.880Z,101959.06
2018-11-04T11:04:03.639Z,101957.36
2018-11-04T11:06:32.385Z,101951.90
2018-11-04T11:09:01.149Z,101946.81
2018-11-04T11:11:29.853Z,101946.59
2018-11-04T11:13:58.666Z,101943.66
2018-11-04T11:16:27.354Z,101948.84
2018-11-04T11:18:56.110Z,101938.02
2018-11-04T11:21:25.082Z,101929.73
2018-11-04T11:23:53.892Z,101926.92
2018-11-04T11:26:22.651Z,101926.38
2018-11-04T11:28:51.410Z,101922.11
2018-11-04T11:31:20.102Z,101918.78
2018-11-04T11:33:48.782Z,101919.23
2018-11-04T11:36:17.591Z,101919.59
2018-11-04T11:38:46.314Z,101913.83
2018-11-04T11:41:15.023Z,101909.78
2018-11-04T11:43:43.835Z,101911.30
2018-11-04T11:46:12.599Z,101902.80
2018-11-04T11:48:41.328Z,101906.61
2018-11-04T11:51:10.734Z,101898.44
2018-11-04T11:53:39.428Z,101902.44
2018-11-04T11:56:08.164Z,101894.59
2018-11-04T11:58:37.058Z,101890.30
2018-11-04T12:01:05.864Z,101890.50
2018-11-04T12:03:34.550Z,101885.89
2018-11-04T12:06:03.331Z,101878.80
2018-11-04T12:08:32.044Z,101879.97
2018-11-04T12:11:00.718Z,101876.05
2018-11-04T12:13:29.644Z,101870.83
2018-11-04T12:15:58.435Z,101867.94
2018-11-04T12:18:27.223Z,101866.69
2018-11-04T12:20:56.121Z,101857.63
2018-11-04T12:23:24.903Z,101854.34
2018-11-04T12:25:53.646Z,101852.08
2018-11-04T12:28:22.545Z,101851.28
2018-11-04T12:30:51.230Z,101849.48
2018-11-04T12:33:19.934Z,101850.52
2018-11-04T12:35:48.816Z,101837.56
2018-11-04T12:38:17.530Z,101835.66
2018-11-04T12:40:46.310Z,101824.09
2018-11-04T12:43:15.143Z,101826.17
2018-11-04T12:45:43.951Z,101822.75
2018-11-04T12:48:12.584Z,101820.41
2018-11-04T12:50:41.974Z,101817.42
2018-11-04T12:53:10.879Z,101811.60
2018-11-04T12:55:39.559Z,101809.55
2018-11-04T12:58:08.306Z,101806.72
2018-11-04T13:00:37.115Z,101810.05
2018-11-04T13:03:06.512Z,101813.42
2018-11-04T13:05:35.288Z,101808.38
2018-11-04T13:08:04.082Z,101805.39
2018-11-04T13:10:32.919Z,101797.06
2018-11-04T13:13:01.710Z,101799.19
2018-11-04T13:15:30.487Z,101799.48
2018-11-04T13:17:59.230Z,101796.67
2018-11-04T13:20:28.114Z,101788.16
2018-11-04T13:22:56.820Z,101786.84
2018-11-04T13:25:25.588Z,101788.95
2018-11-04T13:27:54.322Z,101783.84
2018-11-04T13:30:23.026Z,101784.69
2018-11-04T13:32:51.778Z,101780.25
2018-11-04T13:35:20.683Z,101777.17
2018-11-04T13:37:49.461Z,101776.30
2018-11-04T13:40:18.179Z,101777.70
2018-11-04T13:42:47.135Z,101771.73
2018-11-04T13:45:15.895Z,101766.85
2018-11-04T13:47:44.566Z,101764.42
2018-11-04T13:50:14.744Z,101769.37
2018-11-04T13:52:44.260Z,101772.81
2018-11-04T13:55:13.062Z,101780.77
2018-11-04T13:57:42.179Z,101779.67
2018-11-04T14:00:13.948Z,101775.03
2018-11-04T14:02:43.654Z,101780.39
2018-11-04T14:05:12.464Z,101780.31
2018-11-04T14:07:42.067Z,101785.33
2018-11-04T14:10:12.938Z,101781.80
2018-11-04T14:12:42.362Z,101781.49
2018-11-04T14:15:11.486Z,101779.52
2018-11-04T14:17:41.245Z,101778.72
2018-11-04T14:20:11.314Z,101778.89
2018-11-04T14:22:40.469Z,101772.22
2018-11-04T14:25:12.194Z,101768.11
2018-11-04T14:27:41.213Z,101775.58
2018-11-04T14:30:12.057Z,101771.11
2018-11-04T14:32:41.412Z,101769.55
2018-11-04T14:35:11.928Z,101768.13
2018-11-04T14:37:42.644Z,101767.43
2018-11-04T14:40:13.361Z,101769.06
2018-11-04T14:42:43.157Z,101758.21
2018-11-04T14:45:14.333Z,101754.52
2018-11-04T14:47:43.074Z,101761.69
2018-11-04T14:52:57.964Z,101758.14
2018-11-04T14:55:26.682Z,101752.70
2018-11-04T14:57:55.388Z,101748.55
2018-11-04T15:00:24.110Z,101750.77
2018-11-04T15:02:52.903Z,101754.69
2018-11-04T15:05:22.027Z,101749.33
2018-11-04T15:07:50.909Z,101748.40
2018-11-04T15:10:19.745Z,101745.64
2018-11-04T15:12:48.470Z,101745.57
2018-11-04T15:15:17.953Z,101739.28
2018-11-04T15:17:46.750Z,101738.95
2018-11-04T15:20:15.490Z,101735.87
2018-11-04T15:22:48.979Z,101721.75
2018-11-04T15:25:19.974Z,101728.89
2018-11-04T15:27:49.231Z,101727.39
2018-11-04T15:30:18.090Z,101719.30
2018-11-04T15:32:48.220Z,101722.21
2018-11-04T15:35:17.928Z,101712.94
2018-11-04T15:37:46.836Z,101720.96
2018-11-04T15:40:16.488Z,101723.84
2018-11-04T15:42:45.282Z,101719.92
2018-11-04T15:45:15.100Z,101719.30
2018-11-04T15:47:46.472Z,101716.16
2018-11-04T15:50:17.470Z,101716.24
2018-11-04T15:52:46.838Z,101723.72
2018-11-04T15:55:15.771Z,101719.05
2018-11-04T15:57:44.502Z,101723.22
2018-11-04T16:00:14.623Z,101716.92
2018-11-04T16:02:43.504Z,101715.92
2018-11-04T16:05:12.608Z,101723.22
2018-11-04T16:07:41.420Z,101723.19
2018-11-04T16:10:10.987Z,101722.64
2018-11-04T16:12:40.099Z,101722.97
2018-11-04T16:15:10.875Z,101720.05
2018-11-04T16:17:39.755Z,101722.34
2018-11-04T16:20:10.426Z,101718.09
2018-11-04T16:22:39.825Z,101719.76
2018-11-04T16:25:08.982Z,101725.60
2018-11-04T16:27:37.924Z,101720.67
2018-11-04T16:30:08.496Z,101716.75
2018-11-04T16:32:37.722Z,101719.64
2018-11-04T16:35:07.557Z,101721.22
2018-11-04T16:37:36.301Z,101716.76
2018-11-04T16:40:05.443Z,101718.17
2018-11-04T16:42:34.151Z,101716.51
2018-11-04T16:45:03.263Z,101717.59
2018-11-04T16:47:32.163Z,101721.89
2018-11-04T16:50:00.998Z,101715.22
2018-11-04T16:52:29.833Z,101718.92
2018-11-04T16:54:58.690Z,101716.26
2018-11-04T16:57:27.763Z,101714.25
2018-11-04T16:59:56.537Z,101713.71
2018-11-04T17:02:25.366Z,101715.72
2018-11-04T17:04:54.288Z,101724.68
2018-11-04T17:07:23.007Z,101720.38
2018-11-04T17:09:51.949Z,101720.05
2018-11-04T17:12:20.690Z,101723.59
2018-11-04T17:14:49.783Z,101721.89
2018-11-04T17:17:18.674Z,101716.47
2018-11-04T17:19:47.465Z,101711.37
2018-11-04T17:22:16.287Z,101714.25
2018-11-04T17:24:45.142Z,101717.72
2018-11-04T17:27:13.934Z,101713.46
2018-11-04T17:29:42.827Z,101719.64
2018-11-04T17:32:11.666Z,101718.39
2018-11-04T17:34:41.447Z,101711.50
2018-11-04T17:37:10.562Z,101715.97
2018-11-04T17:39:39.311Z,101706.62
2018-11-04T17:42:08.051Z,101699.40
2018-11-04T17:44:36.879Z,101708.04
2018-11-04T17:47:05.762Z,101701.28
2018-11-04T17:49:34.505Z,101693.60
2018-11-04T17:52:03.267Z,101689.34
2018-11-04T17:54:32.283Z,101690.35
2018-11-04T17:57:01.049Z,101694.27
2018-11-04T17:59:29.805Z,101688.55
2018-11-04T18:01:58.760Z,101693.27
2018-11-04T18:04:27.498Z,101688.64
2018-11-04T18:06:56.371Z,101698.66
2018-11-04T18:09:25.220Z,101688.90
2018-11-04T18:11:53.909Z,101695.31
2018-11-04T18:14:22.696Z,101695.11
2018-11-04T18:16:51.625Z,101696.20
2018-11-04T18:19:20.422Z,101698.57
2018-11-04T18:21:49.198Z,101699.07
2018-11-04T18:24:18.095Z,101693.52
2018-11-04T18:26:46.841Z,101695.94
2018-11-04T18:29:15.574Z,101695.56
2018-11-04T18:31:44.466Z,101696.02
2018-11-04T18:34:13.636Z,101703.66
2018-11-04T18:36:42.370Z,101695.15
2018-11-04T18:39:12.043Z,101694.85
2018-11-04T18:41:41.622Z,101697.81
2018-11-04T18:44:10.461Z,101693.73
2018-11-04T18:46:39.281Z,101697.19
2018-11-04T18:49:08.084Z,101689.89
2018-11-04T18:51:37.188Z,101693.11
2018-11-04T18:54:06.137Z,101697.44
2018-11-04T18:56:36.633Z,101691.77
2018-11-04T18:59:05.895Z,101695.94
2018-11-04T19:01:35.076Z,101700.11
2018-11-04T19:04:03.994Z,101693.44
2018-11-04T19:06:32.772Z,101694.69
2018-11-04T19:09:02.016Z,101688.64
2018-11-04T19:11:30.954Z,101689.97
2018-11-04T19:13:59.702Z,101685.05
2018-11-04T19:16:28.577Z,101685.51
2018-11-04T19:18:58.300Z,101679.54
2018-11-04T19:21:27.053Z,101687.14
2018-11-04T19:23:55.957Z,101685.72
2018-11-04T19:26:24.702Z,101694.85
2018-11-04T19:28:53.506Z,101691.55
2018-11-04T19:31:22.594Z,101697.36
2018-11-04T19:33:51.624Z,101692.81
2018-11-04T19:36:20.702Z,101689.52
2018-11-04T19:38:49.550Z,101689.84
2018-11-04T19:41:18.282Z,101689.05
2018-11-04T19:43:47.065Z,101674.91
2018-11-04T19:46:15.871Z,101674.11
2018-11-04T19:48:44.703Z,101672.48
2018-11-04T19:51:13.615Z,101669.23
2018-11-04T19:53:42.365Z,101675.70
2018-11-04T19:56:12.317Z,101671.86
2018-11-04T19:58:41.839Z,101673.02
2018-11-04T20:01:11.171Z,101669.23
2018-11-04T20:03:39.968Z,101666.18
2018-11-04T20:06:08.762Z,101666.19
2018-11-04T20:08:40.700Z,101660.63
2018-11-04T20:11:09.771Z,101656.63
2018-11-04T20:13:44.199Z,101652.20
2018-11-04T20:16:12.879Z,101650.72
2018-11-04T20:18:47.702Z,101654.91
2018-11-04T20:21:16.627Z,101655.86
2018-11-04T20:23:45.457Z,101659.36
2018-11-04T20:26:15.602Z,101659.11
2018-11-04T20:28:44.442Z,101664.14
2018-11-04T20:31:18.557Z,101665.72
2018-11-04T20:33:49.432Z,101664.77
2018-11-04T20:36:18.593Z,101656.05
2018-11-04T20:41:47.386Z,101650.31
2018-11-04T20:44:16.525Z,101651.19
2018-11-04T20:46:45.291Z,101644.53
2018-11-04T20:49:19.262Z,101642.54
2018-11-04T20:51:48.297Z,101652.45
2018-11-04T20:54:16.998Z,101650.41
2018-11-04T20:56:51.041Z,101639.40
2018-11-04T20:59:19.888Z,101635.31
2018-11-04T21:01:48.659Z,101633.69
2018-11-04T21:04:17.514Z,101630.69
2018-11-04T21:06:46.406Z,101631.23
2018-11-04T21:09:15.225Z,101622.66
2018-11-04T21:11:44.177Z,101621.19
2018-11-04T21:14:12.994Z,101615.94
2018-11-04T21:16:42.103Z,101624.16
2018-11-04T21:19:10.958Z,101623.40
2018-11-04T21:21:39.749Z,101624.94
2018-11-04T21:24:08.591Z,101617.47
2018-11-04T21:26:37.772Z,101617.56
2018-11-04T21:29:06.760Z,101620.95
2018-11-04T21:31:35.386Z,101613.27
2018-11-04T21:34:04.274Z,101609.94
2018-11-04T21:36:33.158Z,101604.28
2018-11-04T21:39:01.848Z,101595.27
2018-11-04T21:41:30.646Z,101591.42
2018-11-04T21:43:59.574Z,101597.72
2018-11-04T21:46:28.206Z,101602.41
2018-11-04T21:48:57.085Z,101594.09
2018-11-04T21:51:25.824Z,101585.53
2018-11-04T21:53:54.536Z,101592.67
2018-11-04T21:56:23.487Z,101590.30
2018-11-04T21:58:52.089Z,101581.83
2018-11-04T22:01:20.941Z,101582.05
2018-11-04T22:03:50.180Z,101575.92
2018-11-04T22:06:18.714Z,101569.90
2018-11-04T22:08:47.470Z,101573.59
2018-11-04T22:11:16.360Z,101566.98
2018-11-04T22:13:45.190Z,101566.66
2018-11-04T22:16:14.057Z,101561.82
2018-11-04T22:18:43.395Z,101561.82
2018-11-04T22:21:12.215Z,101560.62
2018-11-04T22:23:42.011Z,101557.32
2018-11-04T22:26:10.945Z,101558.13
2018-11-04T22:28:39.734Z,101558.80
2018-11-04T22:31:09.039Z,101557.23
2018-11-04T22:33:37.908Z,101555.59
2018-11-04T22:36:06.866Z,101553.95
2018-11-04T22:38:35.633Z,101549.02
2018-11-04T22:41:05.141Z,101546.23
2018-11-04T22:43:33.902Z,101546.09
2018-11-04T22:46:03.375Z,101546.64
2018-11-04T22:48:32.571Z,101550.70
2018-11-04T22:51:01.429Z,101554.86
2018-11-04T22:53:30.206Z,101553.84
2018-11-04T22:55:59.266Z,101552.56
2018-11-04T22:58:27.978Z,101544.00
2018-11-04T23:01:01.717Z,101545.42
2018-11-04T23:03:30.461Z,101545.11
2018-11-04T23:06:07.309Z,101544.12
2018-11-04T23:08:36.060Z,101548.59
2018-11-04T23:11:05.041Z,101548.50
2018-11-04T23:13:33.921Z,101543.25
2018-11-04T23:16:02.707Z,101542.23
2018-11-04T23:18:31.484Z,101536.95
2018-11-04T23:21:00.541Z,101535.93
2018-11-04T23:23:29.285Z,101534.77
2018-11-04T23:25:58.090Z,101527.77
2018-11-04T23:28:26.925Z,101526.06
2018-11-04T23:30:55.638Z,101530.36
2018-11-04T23:33:24.356Z,101525.66
2018-11-04T23:35:53.179Z,101524.87
2018-11-04T23:38:21.912Z,101523.09
2018-11-04T23:40:50.678Z,101526.93
2018-11-04T23:43:19.777Z,101520.58
2018-11-04T23:45:48.501Z,101514.97
2018-11-04T23:48:17.350Z,101516.39
2018-11-04T23:50:46.182Z,101518.60
2018-11-04T23:53:14.914Z,101518.74
2018-11-04T23:55:43.699Z,101527.95
2018-11-04T23:58:12.502Z,101516.62
